キエフ/ボリースピリ の空港の天気 - METARとTAF

ボリースピリ国際空港(キエフ) ( UKBB / KBP ) - ウクライナ ボリスピリ (キエフ近郊)
飛行場実況気象(Metar)
観測時間10/15 20:00 EEST (10/15 17:00 UTC)
風向・風速東 2m/s
視程9000m
天気現象
なし
気温15℃
湿度63%
気圧1020hPa
METARUKBB 151700Z 10002MPS 050V130 9000 NSC 15/08 Q1020 R88/D NOSIG
過去の天気等 Google飛行場航空写真 Wunderground天気予報

過去48時間のMETAR

飛行場予報(TAF)
発表時間: 10/15 14:00 EEST (10/15 11:00 UTC)
予報対象時間: 15日15時 EEST ~ 16日15時 EEST
風向・風速南東 3m/s 瞬間風速 8m/s
視程10km以上
全天の4割程度の雲 雲底高度 1220m
15日18時 EEST ~ 16日10時 EEST に一時的に
視程1000m
天気現象煙 もや
全天の4割程度の雲 雲底高度 180m
15日23時 EEST ~ 16日10時 EEST に 確率 40% で一時的に
視程400m
天気現象
全天を覆う雲 鉛直視程 60m
TAF UKBB 151100Z 1512/1612 14003G08MPS 9999 SCT040
TEMPO 1515/1607 1000 FU BR SCT006
PROB40 TEMPO 1520/1607 0400 FG VV002